Time;durP1;ratioP1;P1;durP2;ratioP2;P2;SDS_P1;SDS_P2;PMS_P1;PMS_P2;Temp;Humidity;BMP_temperature;BMP_pressure;BME280_temperature;BME280_humidity;BME280_pressure;Samples;Min_cycle;Max_cycle;Signal;HPM_P1;HPM_P2
2023/06/06 00:01:32;;;;;;;12.77;3.60;;;;;;;17.92;65.70;101231.69;5016768;28;20087;-83
2023/06/06 00:03:57;;;;;;;3.75;2.63;;;;;;;17.84;65.38;101218.03;5014419;28;20029;-83
2023/06/06 00:06:24;;;;;;;10.15;3.50;;;;;;;17.90;65.92;101239.16;5014210;28;20554;-82
2023/06/06 00:08:52;;;;;;;7.75;2.92;;;;;;;17.88;66.07;101235.75;5014178;28;20501;-83
2023/06/06 00:11:18;;;;;;;12.30;3.72;;;;;;;17.92;66.18;101256.19;5021614;28;20036;-84
2023/06/06 00:13:49;;;;;;;11.93;3.50;;;;;;;17.84;66.14;101242.50;5020935;28;20406;-83
2023/06/06 00:16:15;;;;;;;9.30;3.17;;;;;;;17.75;66.10;101217.09;5012337;28;20037;-84
2023/06/06 00:18:41;;;;;;;22.58;4.72;;;;;;;17.82;66.41;101237.25;5014149;28;20034;-84
2023/06/06 00:21:08;;;;;;;21.95;3.80;;;;;;;17.81;66.43;101232.81;5014106;28;20395;-82
2023/06/06 00:23:34;;;;;;;7.57;3.25;;;;;;;17.79;66.97;101232.13;5021262;28;20060;-83
2023/06/06 00:26:00;;;;;;;12.70;3.25;;;;;;;17.81;66.99;101235.53;5014111;28;20053;-82
2023/06/06 00:28:25;;;;;;;6.20;3.08;;;;;;;17.64;67.48;101225.53;5011391;28;20474;-83
2023/06/06 00:30:51;;;;;;;8.80;2.85;;;;;;;17.72;67.84;101247.34;5012581;28;20060;-83
2023/06/06 00:33:16;;;;;;;18.83;3.08;;;;;;;17.70;67.67;101219.44;5012620;28;20116;-83
2023/06/06 00:35:42;;;;;;;12.98;3.40;;;;;;;17.66;67.95;101209.88;5012467;28;20472;-82
2023/06/06 00:38:07;;;;;;;12.10;3.30;;;;;;;17.74;68.11;101218.09;5010224;28;20051;-84
2023/06/06 00:40:32;;;;;;;8.55;3.22;;;;;;;17.82;68.41;101233.66;5011912;28;20022;-85
2023/06/06 00:42:58;;;;;;;9.40;3.13;;;;;;;17.76;68.37;101218.81;5011435;28;20036;-84
2023/06/06 00:45:23;;;;;;;8.52;3.25;;;;;;;17.76;68.88;101215.25;5010551;28;20033;-83
2023/06/06 00:47:49;;;;;;;16.25;4.03;;;;;;;17.66;68.82;101187.25;5011333;28;20113;-84
2023/06/06 00:50:14;;;;;;;11.90;3.60;;;;;;;17.87;68.90;101217.72;5011222;28;20026;-85
2023/06/06 00:52:46;;;;;;;7.43;2.80;;;;;;;17.99;68.76;101234.63;5011395;28;20026;-83
2023/06/06 00:55:17;;;;;;;12.98;3.30;;;;;;;18.00;68.40;101234.50;5010410;28;20473;-84
2023/06/06 00:57:46;;;;;;;8.20;2.73;;;;;;;18.02;68.44;101234.31;5011962;28;20041;-82
2023/06/06 01:00:13;;;;;;;12.45;3.55;;;;;;;17.83;68.59;101210.88;5011970;28;20040;-84
2023/06/06 01:02:43;;;;;;;11.20;3.03;;;;;;;17.94;68.60;101218.81;5013058;28;20037;-82
2023/06/06 01:05:10;;;;;;;8.35;3.05;;;;;;;17.83;68.87;101199.97;5012849;28;20036;-83
2023/06/06 01:07:36;;;;;;;9.40;3.95;;;;;;;17.87;69.04;101226.72;5014987;28;20871;-83
2023/06/06 01:10:09;;;;;;;10.13;4.28;;;;;;;17.86;69.13;101240.47;5019887;28;20036;-83
2023/06/06 01:12:47;;;;;;;10.98;4.00;;;;;;;17.82;69.11;101239.09;5011273;28;20037;-83
2023/06/06 01:15:23;;;;;;;11.40;4.07;;;;;;;17.84;68.96;101232.50;5011325;28;20029;-84
2023/06/06 01:17:50;;;;;;;9.85;3.63;;;;;;;17.90;68.73;101233.72;5009617;28;20034;-84
2023/06/06 01:20:17;;;;;;;12.73;3.05;;;;;;;17.91;68.27;101233.59;5011179;28;20025;-85
2023/06/06 01:22:43;;;;;;;9.10;3.45;;;;;;;17.88;68.57;101233.03;5010940;28;20029;-84
2023/06/06 01:25:10;;;;;;;16.25;3.17;;;;;;;17.96;68.34;101227.66;5011319;28;20026;-84
2023/06/06 01:27:35;;;;;;;9.40;3.20;;;;;;;17.97;68.15;101221.19;5009762;28;20033;-83
2023/06/06 01:30:05;;;;;;;10.60;3.67;;;;;;;17.98;68.50;101230.22;5009689;28;20037;-84
2023/06/06 01:32:44;;;;;;;10.88;3.78;;;;;;;17.83;68.39;101200.84;5010921;28;20468;-86
2023/06/06 01:35:12;;;;;;;10.82;4.22;;;;;;;18.01;68.66;101227.19;5010566;28;20029;-83
2023/06/06 01:38:19;;;;;;;5.68;2.58;;;;;;;17.94;68.70;101214.22;5010808;28;20037;-83
2023/06/06 01:40:49;;;;;;;7.72;3.47;;;;;;;17.95;68.84;101220.47;5007971;28;20033;-84
2023/06/06 01:43:16;;;;;;;14.90;3.75;;;;;;;17.78;69.10;101191.44;5008237;28;20109;-85
2023/06/06 01:45:43;;;;;;;13.95;3.78;;;;;;;17.92;69.14;101209.91;5008341;28;20037;-83
2023/06/06 01:48:09;;;;;;;27.67;4.25;;;;;;;17.94;69.17;101214.22;5008597;28;20034;-83
2023/06/06 01:50:36;;;;;;;9.25;4.15;;;;;;;17.83;69.21;101189.09;5008407;28;20060;-83
2023/06/06 01:53:01;;;;;;;8.48;3.78;;;;;;;17.92;69.55;101220.81;5008248;28;20034;-84
2023/06/06 01:55:27;;;;;;;7.40;3.20;;;;;;;17.87;70.30;101223.16;5008576;28;20096;-83
2023/06/06 01:57:53;;;;;;;16.35;3.83;;;;;;;17.86;70.17;101210.53;5009471;28;20123;-86
2023/06/06 02:00:19;;;;;;;8.60;3.50;;;;;;;17.87;70.29;101204.09;5009793;28;20033;-84
2023/06/06 02:02:44;;;;;;;8.82;3.42;;;;;;;17.91;70.59;101219.13;5012408;28;20077;-84
2023/06/06 02:05:10;;;;;;;9.80;3.90;;;;;;;17.82;70.60;101217.34;5016647;28;20759;-82
2023/06/06 02:07:37;;;;;;;11.93;4.07;;;;;;;17.79;70.79;101212.22;5013792;28;20084;-86
2023/06/06 02:10:04;;;;;;;11.38;3.75;;;;;;;17.67;70.13;101191.69;5008195;28;20045;-86
2023/06/06 02:12:30;;;;;;;8.05;4.15;;;;;;;17.76;69.56;101216.09;5007789;28;20038;-84
2023/06/06 02:14:56;;;;;;;12.40;4.00;;;;;;;17.81;69.33;101223.78;5008380;28;20033;-85
2023/06/06 02:17:22;;;;;;;8.70;3.72;;;;;;;17.74;69.26;101195.47;5010479;28;20038;-83
2023/06/06 02:19:48;;;;;;;7.72;4.10;;;;;;;17.74;69.37;101200.91;5010934;28;20409;-83
2023/06/06 02:22:13;;;;;;;12.00;3.45;;;;;;;17.79;69.38;101218.50;5011341;28;20033;-85
2023/06/06 02:24:40;;;;;;;12.93;3.60;;;;;;;17.80;69.58;101208.44;5012543;28;20037;-85
2023/06/06 02:27:09;;;;;;;18.13;4.22;;;;;;;17.90;70.02;101228.28;5016413;28;20029;-84
2023/06/06 02:29:35;;;;;;;9.40;4.28;;;;;;;17.89;70.08;101210.22;5010618;28;20044;-82
2023/06/06 02:32:03;;;;;;;7.97;3.97;;;;;;;17.84;70.08;101190.81;5010773;28;20062;-81
2023/06/06 02:34:28;;;;;;;12.43;4.30;;;;;;;17.82;70.32;101188.25;5010797;28;20091;-82
2023/06/06 02:36:54;;;;;;;15.18;4.90;;;;;;;17.95;70.68;101215.03;5010498;28;20113;-82
2023/06/06 02:39:21;;;;;;;60.47;11.60;;;;;;;17.82;70.66;101207.31;5027559;28;20124;-82
2023/06/06 02:41:46;;;;;;;20.63;5.93;;;;;;;17.82;71.12;101209.16;5027973;28;20041;-84
2023/06/06 02:44:12;;;;;;;21.45;4.68;;;;;;;17.83;70.86;101195.41;5027607;28;20175;-83
2023/06/06 02:46:37;;;;;;;14.85;4.30;;;;;;;17.88;71.10;101214.84;5029933;28;20493;-82
2023/06/06 02:49:02;;;;;;;15.52;4.22;;;;;;;17.94;70.93;101210.63;5039697;28;20093;-83
2023/06/06 02:51:28;;;;;;;13.25;4.63;;;;;;;17.93;71.04;101217.06;5042977;28;20116;-82
2023/06/06 02:53:53;;;;;;;16.25;3.67;;;;;;;17.93;71.13;101215.22;5034207;28;20120;-83
2023/06/06 02:56:19;;;;;;;9.85;4.10;;;;;;;17.80;70.97;101211.19;5033987;28;20034;-83
2023/06/06 02:58:45;;;;;;;12.45;4.65;;;;;;;17.84;71.36;101228.91;5034395;28;20041;-82
2023/06/06 03:01:14;;;;;;;12.13;4.50;;;;;;;17.79;71.59;101209.50;5039030;28;20034;-82
2023/06/06 03:03:40;;;;;;;11.65;4.28;;;;;;;17.89;71.41;101221.97;5037495;28;20030;-83
2023/06/06 03:06:06;;;;;;;13.35;4.82;;;;;;;17.87;71.60;101223.16;5031914;28;20069;-85
2023/06/06 03:08:38;;;;;;;24.70;5.93;;;;;;;17.93;71.44;101223.38;5034401;28;20056;-92
2023/06/06 03:11:04;;;;;;;17.92;5.75;;;;;;;17.97;70.74;101226.66;5018884;28;20137;-93
2023/06/06 03:13:29;;;;;;;19.52;5.38;;;;;;;17.86;70.53;101200.53;5027862;28;20090;-91
2023/06/06 03:15:56;;;;;;;28.77;6.30;;;;;;;17.98;70.26;101220.16;5055602;28;20025;-92
2023/06/06 03:18:23;;;;;;;24.65;6.35;;;;;;;17.80;70.44;101201.16;5039416;28;20024;-90
2023/06/06 03:20:53;;;;;;;25.17;6.05;;;;;;;17.89;69.82;101211.09;5040055;28;20076;-91
2023/06/06 03:23:19;;;;;;;23.38;6.75;;;;;;;17.93;69.46;101227.97;5037391;28;20094;-93
2023/06/06 03:25:49;;;;;;;15.82;6.18;;;;;;;17.92;69.12;101231.69;5045646;28;20030;-93
2023/06/06 03:28:18;;;;;;;19.60;6.45;;;;;;;17.92;69.03;101226.25;5040035;28;20022;-94
2023/06/06 03:30:48;;;;;;;68.63;7.93;;;;;;;17.83;69.23;101199.97;5018468;28;20037;-91
2023/06/06 03:33:15;;;;;;;17.25;7.03;;;;;;;17.94;68.97;101218.81;5017399;28;20124;-92
2023/06/06 03:35:41;;;;;;;22.23;6.82;;;;;;;18.02;69.18;101224.28;5018210;28;20068;-90
2023/06/06 03:38:07;;;;;;;54.33;8.27;;;;;;;18.05;68.81;101220.41;5026384;28;20029;-93
2023/06/06 03:40:33;;;;;;;20.67;6.30;;;;;;;18.01;68.85;101208.13;5034005;28;20026;-94
2023/06/06 03:42:58;;;;;;;34.38;6.85;;;;;;;18.09;68.61;101222.66;5016150;28;20033;-94
2023/06/06 03:45:24;;;;;;;27.42;7.93;;;;;;;18.13;68.57;101229.50;5015127;28;20037;-93
2023/06/06 03:47:50;;;;;;;25.75;7.75;;;;;;;18.12;68.67;101238.69;5014530;28;20037;-93
2023/06/06 03:50:16;;;;;;;30.85;7.28;;;;;;;18.10;68.72;101218.06;5023199;28;20041;-95
2023/06/06 03:52:42;;;;;;;22.38;7.45;;;;;;;18.18;68.38;101224.41;5029926;28;20029;-96
2023/06/06 03:55:09;;;;;;;22.38;6.05;;;;;;;18.21;68.49;101237.72;5030623;28;20033;-93
2023/06/06 03:57:35;;;;;;;23.30;6.95;;;;;;;18.20;68.22;101222.38;5037376;28;20056;-90
2023/06/06 04:00:07;;;;;;;28.63;8.30;;;;;;;18.32;67.97;101237.44;5047674;28;20101;-86
2023/06/06 04:02:34;;;;;;;47.85;8.38;;;;;;;18.31;67.71;101218.56;5015296;28;20030;-87
2023/06/06 04:05:01;;;;;;;35.75;6.57;;;;;;;18.40;67.20;101223.03;5012959;28;20029;-88
2023/06/06 04:07:28;;;;;;;17.55;6.35;;;;;;;18.45;67.46;101237.03;5013069;28;20017;-86
2023/06/06 04:09:54;;;;;;;24.15;7.32;;;;;;;18.46;67.18;101231.44;5013780;28;20034;-86
2023/06/06 04:12:20;;;;;;;36.13;7.22;;;;;;;18.53;66.81;101237.09;5011996;28;20030;-78
2023/06/06 04:14:47;;;;;;;46.47;8.88;;;;;;;18.57;66.85;101233.03;5010337;28;20044;-73
2023/06/06 04:17:13;;;;;;;21.25;7.50;;;;;;;18.63;66.89;101239.72;5010513;28;20028;-84
2023/06/06 04:19:38;;;;;;;26.45;7.45;;;;;;;18.67;66.51;101232.94;5011006;28;20026;-85
2023/06/06 04:22:05;;;;;;;17.80;7.18;;;;;;;18.79;66.39;101242.53;5009760;28;20040;-83
2023/06/06 04:24:30;;;;;;;39.90;10.00;;;;;;;18.77;65.57;101223.63;5011448;28;20025;-79
2023/06/06 04:26:57;;;;;;;38.85;11.05;;;;;;;18.92;65.36;101243.78;5012300;28;20030;-85
2023/06/06 04:29:23;;;;;;;47.22;10.68;;;;;;;18.97;65.15;101230.53;5012730;28;20032;-88
2023/06/06 04:31:52;;;;;;;37.72;10.13;;;;;;;19.00;65.23;101219.28;5012728;28;20061;-85
2023/06/06 04:34:23;;;;;;;42.78;10.15;;;;;;;19.13;64.90;101223.41;5012686;28;20061;-87
2023/06/06 04:36:51;;;;;;;30.30;8.23;;;;;;;19.22;64.93;101219.69;5013051;28;20022;-88
2023/06/06 04:39:19;;;;;;;42.75;11.35;;;;;;;19.38;64.69;101234.25;5017206;28;20037;-90
2023/06/06 04:41:45;;;;;;;33.00;8.18;;;;;;;19.36;64.88;101232.66;5015080;28;20033;-88
2023/06/06 04:44:10;;;;;;;20.42;9.52;;;;;;;19.33;64.57;101203.00;5015422;28;20034;-90
2023/06/06 04:46:36;;;;;;;23.17;4.93;;;;;;;19.50;64.93;101227.47;5020567;28;20502;-88
2023/06/06 04:49:02;;;;;;;19.55;5.78;;;;;;;19.64;65.12;101230.53;5024574;28;20401;-86
2023/06/06 04:51:29;;;;;;;20.85;5.32;;;;;;;19.79;64.41;101231.56;5018023;28;20030;-88
2023/06/06 04:53:59;;;;;;;19.83;4.70;;;;;;;19.91;64.37;101235.69;5026106;28;20125;-85
2023/06/06 05:27:52;;;;;;;27.48;4.55;;;;;;;20.72;58.31;101235.59;5125103;27;20384;-91
2023/06/06 05:30:17;;;;;;;35.03;5.68;;;;;;;20.70;58.43;101210.34;5111206;28;20042;-92
2023/06/06 05:32:43;;;;;;;19.98;4.32;;;;;;;20.95;57.61;101229.19;5109748;28;20024;-91
2023/06/06 05:35:09;;;;;;;17.42;3.47;;;;;;;20.96;57.41;101227.31;5087616;28;20043;-90
2023/06/06 05:37:34;;;;;;;54.53;7.05;;;;;;;21.04;56.92;101230.84;5071283;28;20044;-89
2023/06/06 05:40:00;;;;;;;15.60;3.50;;;;;;;21.02;56.74;101234.81;5068863;28;20550;-85
2023/06/06 05:42:25;;;;;;;21.20;4.60;;;;;;;21.13;57.06;101234.44;5085798;28;20145;-82
2023/06/06 05:44:51;;;;;;;24.15;5.00;;;;;;;21.19;56.94;101239.22;5085144;28;20206;-80
2023/06/06 05:47:16;;;;;;;41.53;5.70;;;;;;;21.31;56.06;101237.78;5084309;28;20033;-81
2023/06/06 05:49:42;;;;;;;9.05;3.30;;;;;;;21.30;55.87;101240.69;5101429;28;20690;-85
2023/06/06 05:52:08;;;;;;;21.70;4.10;;;;;;;21.39;55.91;101247.81;5095451;28;20051;-84
2023/06/06 05:54:34;;;;;;;39.25;5.63;;;;;;;21.35;55.69;101233.63;5083823;28;20040;-85
2023/06/06 05:57:00;;;;;;;24.02;4.85;;;;;;;21.40;55.67;101242.19;5083640;28;20533;-84
2023/06/06 05:59:26;;;;;;;44.45;4.95;;;;;;;21.47;55.64;101242.28;5084176;28;20040;-85
2023/06/06 06:01:52;;;;;;;26.05;5.50;;;;;;;21.64;55.13;101250.25;5083594;28;20036;-83
2023/06/06 06:04:18;;;;;;;16.95;3.05;;;;;;;21.52;53.81;101217.97;5084652;28;20424;-82
2023/06/06 06:06:46;;;;;;;9.07;3.97;;;;;;;21.59;52.88;101240.84;5086866;28;20044;-84
2023/06/06 06:09:16;;;;;;;13.52;3.47;;;;;;;21.60;53.62;101248.03;5102169;28;20020;-83
2023/06/06 06:11:43;;;;;;;27.88;8.38;;;;;;;21.59;53.28;101249.06;5086515;28;20391;-85
2023/06/06 06:14:08;;;;;;;28.83;4.38;;;;;;;21.66;53.72;101248.16;5102232;28;20555;-83
2023/06/06 06:16:34;;;;;;;20.25;4.30;;;;;;;21.62;53.67;101224.91;5107645;28;20095;-86
2023/06/06 06:18:59;;;;;;;49.78;5.20;;;;;;;21.70;52.76;101230.34;5107097;28;20396;-83
2023/06/06 06:21:25;;;;;;;21.52;5.38;;;;;;;21.84;52.20;101225.09;5106583;28;20019;-84
2023/06/06 06:23:51;;;;;;;11.10;3.42;;;;;;;22.10;51.24;101248.38;5105719;28;20031;-84
2023/06/06 06:26:17;;;;;;;12.50;3.97;;;;;;;21.87;50.86;101206.41;5105476;28;20063;-84
2023/06/06 06:28:43;;;;;;;16.15;4.20;;;;;;;22.26;49.68;101243.78;5107332;28;20028;-83
2023/06/06 06:31:08;;;;;;;18.27;3.78;;;;;;;22.28;49.74;101245.28;5107792;28;20024;-83
2023/06/06 06:33:34;;;;;;;11.68;3.05;;;;;;;22.04;50.05;101224.47;5107483;28;20472;-84
2023/06/06 06:36:00;;;;;;;14.57;4.97;;;;;;;22.21;50.77;101239.69;5106459;28;20369;-84
2023/06/06 06:38:26;;;;;;;14.63;4.15;;;;;;;22.26;51.01;101233.69;5098507;28;20028;-85
2023/06/06 06:40:52;;;;;;;15.75;4.53;;;;;;;22.24;50.33;101205.59;5094471;28;20077;-82
2023/06/06 06:43:18;;;;;;;7.13;3.10;;;;;;;22.34;50.57;101225.38;5093907;28;20027;-85
2023/06/06 06:45:43;;;;;;;18.20;3.47;;;;;;;22.53;50.59;101235.78;5103075;28;20038;-85
2023/06/06 06:48:09;;;;;;;15.18;3.50;;;;;;;22.50;49.33;101240.78;5108964;28;20032;-83
2023/06/06 06:50:34;;;;;;;13.25;3.45;;;;;;;22.43;50.36;101245.31;5094703;28;20411;-84
2023/06/06 06:53:02;;;;;;;9.15;3.35;;;;;;;22.45;49.42;101246.81;5091517;28;20019;-85
2023/06/06 06:55:27;;;;;;;28.77;4.32;;;;;;;22.52;49.55;101239.56;5092985;28;20385;-84
2023/06/06 06:57:53;;;;;;;14.32;4.05;;;;;;;22.55;49.09;101247.41;5093037;28;20066;-83
2023/06/06 07:00:23;;;;;;;23.48;3.83;;;;;;;22.76;48.97;101247.56;5091957;28;20059;-84
2023/06/06 07:02:49;;;;;;;14.98;3.92;;;;;;;22.81;48.74;101244.25;5092728;28;20032;-83
2023/06/06 07:05:16;;;;;;;17.45;3.95;;;;;;;22.68;49.15;101233.94;5092607;28;20399;-84
2023/06/06 07:07:50;;;;;;;13.27;3.05;;;;;;;22.91;47.35;101241.19;5083299;28;20021;-84
2023/06/06 07:10:17;;;;;;;9.85;3.40;;;;;;;22.90;46.00;101236.78;5073476;28;20028;-85
2023/06/06 07:12:52;;;;;;;18.48;3.72;;;;;;;23.06;44.62;101253.00;5073407;28;20090;-81
2023/06/06 07:15:19;;;;;;;42.83;6.75;;;;;;;23.10;45.04;101232.38;5074535;28;20036;-84
2023/06/06 07:17:49;;;;;;;23.35;4.47;;;;;;;23.24;45.03;101261.69;5082894;28;20066;-82
2023/06/06 07:20:16;;;;;;;9.48;4.35;;;;;;;23.32;44.85;101247.88;5096822;28;20104;-84
2023/06/06 07:22:41;;;;;;;53.28;7.20;;;;;;;23.37;44.66;101241.78;5094287;28;20028;-82
2023/06/06 07:25:08;;;;;;;8.30;3.25;;;;;;;23.53;44.52;101252.59;5093914;28;20035;-84
2023/06/06 07:27:36;;;;;;;16.42;4.20;;;;;;;23.60;44.85;101257.13;5094666;28;20052;-82
2023/06/06 07:30:12;;;;;;;10.77;3.38;;;;;;;23.80;42.48;101263.66;5099229;28;20043;-85
2023/06/06 07:32:46;;;;;;;13.45;3.78;;;;;;;23.84;42.24;101265.00;5093365;28;20123;-83
2023/06/06 07:35:13;;;;;;;11.73;3.08;;;;;;;23.82;39.97;101264.31;5093841;28;20020;-83
2023/06/06 07:37:39;;;;;;;12.23;2.65;;;;;;;23.71;38.81;101248.38;5096607;28;20035;-83
2023/06/06 07:40:11;;;;;;;8.40;2.80;;;;;;;23.79;38.09;101264.72;5096083;28;20028;-83
2023/06/06 07:42:37;;;;;;;7.60;3.70;;;;;;;23.66;37.98;101259.09;5109997;28;20026;-82
2023/06/06 07:45:06;;;;;;;10.93;3.00;;;;;;;23.55;37.90;101243.09;5107797;28;20268;-82
2023/06/06 07:47:32;;;;;;;11.77;3.08;;;;;;;23.66;38.77;101242.63;5094056;28;20028;-83
2023/06/06 07:49:58;;;;;;;27.13;4.57;;;;;;;23.70;39.54;101224.69;5097853;28;20020;-85
2023/06/06 07:52:25;;;;;;;16.90;4.18;;;;;;;23.85;40.80;101246.63;5114800;28;20039;-85
2023/06/06 07:54:51;;;;;;;58.53;5.22;;;;;;;23.96;40.91;101261.72;5115004;28;20016;-83
2023/06/06 07:57:16;;;;;;;11.40;2.85;;;;;;;23.99;40.50;101240.19;5101565;28;20039;-82
2023/06/06 07:59:45;;;;;;;9.82;2.92;;;;;;;23.96;40.00;101242.47;5094345;28;20491;-84
2023/06/06 08:02:14;;;;;;;9.95;3.47;;;;;;;24.06;40.23;101260.34;5093730;28;20115;-84
2023/06/06 08:04:42;;;;;;;27.25;4.40;;;;;;;24.05;42.89;101260.53;5093371;28;20027;-84
2023/06/06 08:07:09;;;;;;;9.50;2.53;;;;;;;23.99;40.25;101244.84;5092805;28;20621;-84
2023/06/06 08:09:35;;;;;;;15.95;4.25;;;;;;;24.11;39.54;101251.53;5092685;28;20027;-83
2023/06/06 08:12:00;;;;;;;26.58;3.83;;;;;;;23.75;39.05;101232.34;5092036;28;20028;-84
2023/06/06 08:14:26;;;;;;;8.70;2.83;;;;;;;23.89;38.82;101250.66;5092085;28;20430;-83
2023/06/06 08:16:51;;;;;;;9.07;2.90;;;;;;;24.03;39.13;101247.00;5091519;28;20028;-83
2023/06/06 08:19:18;;;;;;;26.27;3.97;;;;;;;23.97;38.74;101239.56;5091654;28;20020;-83
2023/06/06 08:21:43;;;;;;;16.58;2.80;;;;;;;24.14;37.19;101249.25;5093221;28;20036;-82
2023/06/06 08:24:09;;;;;;;10.63;2.75;;;;;;;24.15;38.29;101239.97;5093278;28;20031;-85
2023/06/06 08:26:34;;;;;;;19.48;4.03;;;;;;;24.21;37.98;101243.81;5092824;28;20117;-84
2023/06/06 08:29:00;;;;;;;15.05;3.08;;;;;;;24.30;39.04;101264.59;5091799;28;20020;-84
2023/06/06 08:31:29;;;;;;;9.85;3.55;;;;;;;24.45;37.31;101257.09;5093981;28;20479;-83
2023/06/06 08:33:55;;;;;;;15.25;2.67;;;;;;;24.30;37.66;101246.22;5094086;28;20090;-86
2023/06/06 08:36:20;;;;;;;22.58;3.40;;;;;;;24.52;38.25;101258.03;5092508;28;20055;-84
2023/06/06 08:38:46;;;;;;;20.70;3.33;;;;;;;24.53;38.61;101243.19;5102363;28;20509;-85
2023/06/06 08:41:14;;;;;;;21.15;3.60;;;;;;;24.65;37.63;101258.09;5103610;28;20026;-83
2023/06/06 08:43:39;;;;;;;19.83;3.58;;;;;;;24.63;38.75;101248.34;5094187;28;20607;-83
2023/06/06 08:46:05;;;;;;;10.52;3.50;;;;;;;24.75;38.85;101252.22;5091284;28;20111;-84
2023/06/06 08:48:37;;;;;;;11.35;3.13;;;;;;;24.75;40.64;101252.22;5091494;28;20503;-89
2023/06/06 08:51:03;;;;;;;19.55;3.72;;;;;;;24.62;41.40;101247.50;5092563;28;20020;-85
2023/06/06 08:53:30;;;;;;;17.30;4.47;;;;;;;24.59;40.86;101225.03;5090863;28;20038;-83
2023/06/06 08:55:56;;;;;;;10.52;3.13;;;;;;;24.61;38.79;101232.06;5089505;28;20438;-83
2023/06/06 08:58:22;;;;;;;12.82;3.90;;;;;;;24.36;38.66;101208.81;5072721;28;20043;-83
2023/06/06 09:00:49;;;;;;;10.25;2.40;;;;;;;24.48;39.96;101240.22;5088369;28;20040;-84
2023/06/06 09:03:17;;;;;;;12.52;4.13;;;;;;;24.47;41.49;101237.63;5088378;28;20491;-85
2023/06/06 09:05:43;;;;;;;34.40;4.90;;;;;;;24.53;42.52;101232.19;5089340;28;20097;-85
2023/06/06 09:08:09;;;;;;;4.20;2.63;;;;;;;24.39;41.23;101219.41;5072250;28;20044;-83
2023/06/06 09:10:34;;;;;;;9.35;2.70;;;;;;;24.47;42.06;101241.25;5090797;28;20435;-83
2023/06/06 09:13:00;;;;;;;11.93;2.67;;;;;;;24.31;42.77;101219.56;5089664;28;20055;-82
2023/06/06 09:15:27;;;;;;;8.50;4.25;;;;;;;24.31;45.28;101245.13;5089191;28;20471;-82
2023/06/06 09:17:54;;;;;;;6.72;2.60;;;;;;;24.12;44.44;101231.25;5096509;28;20028;-84
2023/06/06 09:20:21;;;;;;;17.25;2.42;;;;;;;24.06;43.99;101232.00;5109156;28;20568;-86
2023/06/06 09:22:48;;;;;;;15.15;3.40;;;;;;;24.13;45.05;101235.69;5109244;28;20039;-83
2023/06/06 09:25:20;;;;;;;9.27;2.63;;;;;;;24.04;44.91;101228.59;5110175;28;20036;-85
2023/06/06 09:27:47;;;;;;;11.20;3.65;;;;;;;24.13;45.12;101241.19;5095153;28;20048;-83
2023/06/06 09:30:21;;;;;;;11.27;3.03;;;;;;;24.12;46.71;101229.34;5094653;28;20036;-82
2023/06/06 09:32:58;;;;;;;10.02;2.78;;;;;;;24.17;43.09;101248.84;5091408;28;20056;-84
2023/06/06 09:35:33;;;;;;;16.02;3.28;;;;;;;24.05;43.42;101233.03;5100217;28;20035;-83
2023/06/06 09:38:16;;;;;;;16.92;3.28;;;;;;;24.31;42.79;101247.06;5102090;28;20028;-83
2023/06/06 09:40:50;;;;;;;11.68;2.60;;;;;;;24.38;42.01;101256.19;5093585;28;20024;-83
2023/06/06 09:43:23;;;;;;;23.67;3.05;;;;;;;24.23;42.37;101237.06;5093387;28;20028;-84
2023/06/06 09:45:52;;;;;;;9.50;2.35;;;;;;;24.33;41.79;101247.72;5091608;28;20027;-83
2023/06/06 09:48:28;;;;;;;7.82;2.22;;;;;;;24.17;41.82;101248.84;5091971;28;20024;-83
2023/06/06 09:50:54;;;;;;;7.68;2.65;;;;;;;24.08;41.55;101232.66;5090444;28;20038;-83
2023/06/06 09:53:24;;;;;;;13.15;2.38;;;;;;;24.09;43.47;101215.97;5090546;28;20025;-83
2023/06/06 09:55:51;;;;;;;10.43;2.45;;;;;;;24.11;41.06;101226.78;5090689;28;20024;-86
2023/06/06 09:58:20;;;;;;;14.10;3.28;;;;;;;24.31;44.44;101222.31;5090661;28;20126;-83
2023/06/06 10:00:47;;;;;;;15.25;2.63;;;;;;;24.38;40.20;101228.69;5090881;28;20020;-83
2023/06/06 10:03:18;;;;;;;11.05;2.88;;;;;;;24.28;43.12;101206.19;5090021;28;20047;-85
2023/06/06 10:05:47;;;;;;;3.90;2.45;;;;;;;24.31;42.16;101216.81;5091621;28;20495;-82
2023/06/06 10:08:17;;;;;;;14.05;3.55;;;;;;;24.50;41.06;101237.25;5092160;28;20020;-84
2023/06/06 10:10:45;;;;;;;16.20;2.70;;;;;;;24.48;42.73;101229.22;5096203;28;20115;-83
2023/06/06 10:13:13;;;;;;;14.30;2.30;;;;;;;24.29;43.96;101213.41;5091749;28;20510;-84
2023/06/06 10:15:39;;;;;;;16.33;3.80;;;;;;;24.50;45.45;101224.34;5094184;28;20074;-85
2023/06/06 10:18:05;;;;;;;13.05;3.20;;;;;;;24.67;45.09;101231.25;5094186;28;20035;-83
2023/06/06 10:20:31;;;;;;;36.88;5.47;;;;;;;24.76;42.76;101238.28;5093606;28;20110;-82
2023/06/06 10:23:00;;;;;;;12.95;3.00;;;;;;;24.69;40.43;101217.28;5094005;28;20112;-85
2023/06/06 10:25:26;;;;;;;5.05;2.10;;;;;;;24.79;42.61;101242.53;5095012;28;20506;-82
2023/06/06 10:28:08;;;;;;;6.28;2.60;;;;;;;24.80;42.09;101234.06;5095663;28;20016;-83
2023/06/06 10:30:43;;;;;;;19.33;3.72;;;;;;;24.78;41.82;101230.66;5098154;28;20028;-85
2023/06/06 10:33:29;;;;;;;12.60;3.13;;;;;;;24.65;41.80;101208.56;5108705;28;20036;-83
2023/06/06 10:36:03;;;;;;;17.30;3.53;;;;;;;24.68;42.98;101213.66;5102808;28;20038;-82
2023/06/06 10:38:30;;;;;;;19.17;3.08;;;;;;;24.79;43.87;101218.63;5093692;28;20548;-83
2023/06/06 10:40:58;;;;;;;11.10;2.53;;;;;;;24.84;42.56;101213.38;5093018;28;20020;-83
2023/06/06 10:43:35;;;;;;;26.00;3.83;;;;;;;24.95;40.69;101205.59;5093701;28;20055;-83
2023/06/06 10:46:04;;;;;;;4.25;2.33;;;;;;;24.87;40.46;101207.47;5093183;28;20493;-82
2023/06/06 10:48:45;;;;;;;5.55;2.38;;;;;;;24.97;41.19;101197.97;5091451;28;20024;-84
2023/06/06 10:51:34;;;;;;;34.83;4.65;;;;;;;25.04;42.11;101212.63;5091617;28;20491;-83
2023/06/06 10:54:26;;;;;;;14.60;2.92;;;;;;;25.10;43.42;101203.56;5091595;28;20471;-83
2023/06/06 10:56:56;;;;;;;11.18;2.78;;;;;;;24.86;43.01;101194.75;5092791;28;20557;-84
2023/06/06 10:59:30;;;;;;;11.50;2.75;;;;;;;24.98;41.13;101207.97;5092877;28;20024;-83
2023/06/06 11:01:56;;;;;;;8.07;2.17;;;;;;;24.89;42.02;101190.78;5092686;28;20051;-85
2023/06/06 11:04:24;;;;;;;6.00;2.55;;;;;;;25.13;43.23;101200.41;5091465;28;20070;-85
2023/06/06 11:06:51;;;;;;;10.70;2.95;;;;;;;25.25;42.33;101193.25;5092366;28;20803;-82
2023/06/06 11:09:22;;;;;;;39.10;4.70;;;;;;;25.11;41.29;101175.81;5092763;28;20020;-83
2023/06/06 11:11:50;;;;;;;8.38;2.88;;;;;;;25.25;42.25;101198.75;5092288;28;20467;-83
2023/06/06 11:14:20;;;;;;;11.23;2.42;;;;;;;25.28;39.50;101192.81;5093118;28;20074;-83
2023/06/06 11:16:45;;;;;;;15.55;3.28;;;;;;;25.22;41.07;101197.25;5092570;28;20036;-82
2023/06/06 11:19:16;;;;;;;17.13;3.55;;;;;;;25.22;41.61;101177.97;5092243;28;20070;-83
2023/06/06 11:21:45;;;;;;;5.20;2.63;;;;;;;25.25;42.27;101204.25;5081976;28;20454;-83
2023/06/06 11:24:11;;;;;;;22.98;4.35;;;;;;;25.10;41.56;101162.25;5089113;28;20032;-84
2023/06/06 11:26:39;;;;;;;8.48;2.50;;;;;;;25.08;42.97;101200.13;5094857;28;20048;-82
2023/06/06 11:29:07;;;;;;;10.18;2.40;;;;;;;25.08;43.11;101187.22;5105919;28;20020;-85
2023/06/06 11:31:35;;;;;;;16.88;3.25;;;;;;;25.35;41.39;101191.78;5105849;28;20051;-85
2023/06/06 11:34:14;;;;;;;15.30;2.45;;;;;;;25.39;41.42;101205.97;5092515;28;20051;-84
2023/06/06 11:36:42;;;;;;;15.05;2.90;;;;;;;25.50;40.37;101205.44;5092286;28;20428;-82
2023/06/06 11:39:12;;;;;;;10.35;2.60;;;;;;;25.60;42.25;101208.59;5092212;28;20024;-84
2023/06/06 11:41:46;;;;;;;7.07;2.33;;;;;;;25.47;42.14;101189.28;5091770;28;20024;-82
2023/06/06 11:44:12;;;;;;;19.45;3.00;;;;;;;25.68;41.02;101193.81;5092448;28;20039;-87
2023/06/06 11:46:50;;;;;;;11.95;2.97;;;;;;;25.67;43.25;101192.94;5093178;28;20040;-85
2023/06/06 11:49:17;;;;;;;14.05;3.38;;;;;;;25.65;41.99;101195.06;5091919;28;20503;-87
2023/06/06 11:51:59;;;;;;;17.48;4.10;;;;;;;25.71;39.26;101191.47;5093403;28;20039;-84
2023/06/06 11:54:27;;;;;;;;;;;;;;;25.96;36.79;101195.28;5093079;28;20024;-86